createdAt,value
2019-02-06T00:01:57.965Z,211.40
2019-02-06T00:04:45.878Z,178.75
2019-02-06T00:07:14.939Z,116.60
2019-02-06T00:09:47.689Z,190.30
2019-02-06T00:12:19.567Z,248.62
2019-02-06T00:14:56.175Z,179.40
2019-02-06T00:17:25.259Z,177.45
2019-02-06T00:20:07.797Z,371.27
2019-02-06T00:25:17.471Z,304.20
2019-02-06T00:27:46.569Z,117.33
2019-02-06T00:30:15.619Z,258.30
2019-02-06T00:32:45.256Z,73.93
2019-02-06T00:35:25.621Z,202.00
2019-02-06T00:40:24.982Z,199.17
2019-02-06T00:43:08.399Z,297.25
2019-02-06T00:45:40.191Z,350.87
2019-02-06T00:48:09.301Z,193.20
2019-02-06T00:50:52.919Z,323.23
2019-02-06T00:53:21.992Z,81.40
2019-02-06T00:56:04.186Z,186.52
2019-02-06T00:58:37.408Z,98.37
2019-02-06T01:03:53.333Z,245.20
2019-02-06T01:06:22.391Z,194.03
2019-02-06T01:08:53.397Z,204.95
2019-02-06T01:11:22.898Z,137.00
2019-02-06T01:13:52.018Z,244.30
2019-02-06T01:16:21.081Z,423.55
2019-02-06T01:21:26.298Z,331.55
2019-02-06T01:24:07.558Z,265.85
2019-02-06T01:29:16.289Z,212.43
2019-02-06T01:31:58.455Z,119.57
2019-02-06T01:34:27.539Z,238.80
2019-02-06T01:37:05.080Z,261.30
2019-02-06T01:39:34.159Z,157.57
2019-02-06T01:42:03.218Z,272.02
2019-02-06T01:44:36.236Z,97.50
2019-02-06T01:47:07.259Z,310.65
2019-02-06T01:52:13.346Z,408.50
2019-02-06T01:54:43.383Z,232.17
2019-02-06T01:57:13.937Z,359.08
2019-02-06T01:59:57.319Z,537.45
2019-02-06T02:05:12.192Z,413.80
2019-02-06T02:07:41.269Z,176.47
2019-02-06T02:13:07.761Z,474.20
2019-02-06T02:15:36.835Z,175.87
2019-02-06T02:20:42.209Z,369.62
2019-02-06T02:23:14.994Z,93.33
2019-02-06T02:25:44.084Z,320.45
2019-02-06T02:28:15.085Z,539.60
2019-02-06T02:30:44.139Z,380.95
2019-02-06T02:33:13.209Z,109.80
2019-02-06T02:35:42.638Z,232.93
2019-02-06T02:38:29.058Z,269.65
2019-02-06T02:44:04.362Z,426.13
2019-02-06T02:46:33.437Z,444.10
2019-02-06T02:49:10.785Z,79.23
2019-02-06T02:51:39.887Z,98.75
2019-02-06T02:56:45.667Z,142.30
2019-02-06T02:59:28.393Z,102.97
2019-02-06T03:02:02.530Z,97.97
2019-02-06T03:04:31.663Z,99.15
2019-02-06T03:07:04.325Z,144.43
2019-02-06T03:09:33.383Z,54.93
2019-02-06T03:16:43.219Z,112.43
2019-02-06T03:19:12.315Z,65.30
2019-02-06T03:21:41.899Z,76.20
2019-02-06T03:24:11.011Z,99.30
2019-02-06T03:26:40.106Z,80.87
2019-02-06T03:29:09.183Z,148.65
2019-02-06T03:31:38.265Z,180.90
2019-02-06T03:34:15.260Z,122.35
2019-02-06T03:36:45.297Z,55.63
2019-02-06T03:39:15.312Z,62.92
2019-02-06T03:41:45.017Z,41.77
2019-02-06T03:44:26.135Z,107.20
2019-02-06T03:46:55.784Z,130.93
2019-02-06T03:52:05.719Z,76.32
2019-02-06T03:54:43.804Z,331.40
2019-02-06T04:00:00.871Z,90.37
2019-02-06T04:02:31.884Z,84.23
2019-02-06T04:05:02.885Z,162.57
2019-02-06T04:07:32.711Z,94.55
2019-02-06T04:10:01.831Z,122.22
2019-02-06T04:15:23.071Z,232.35
2019-02-06T04:17:54.506Z,121.47
2019-02-06T04:20:32.972Z,86.43
2019-02-06T04:23:13.066Z,72.37
2019-02-06T04:25:48.190Z,61.63
2019-02-06T04:28:17.992Z,47.07
2019-02-06T04:33:26.913Z,51.50
2019-02-06T04:35:58.027Z,61.77
2019-02-06T04:38:27.229Z,54.25
2019-02-06T04:41:19.086Z,98.20
2019-02-06T04:43:50.484Z,36.57
2019-02-06T04:46:20.139Z,52.05
2019-02-06T04:48:52.702Z,55.00
2019-02-06T04:51:21.878Z,51.45
2019-02-06T04:53:57.494Z,61.22
2019-02-06T04:56:26.655Z,63.55
2019-02-06T04:58:56.250Z,42.13
2019-02-06T05:01:25.789Z,60.07
2019-02-06T05:04:16.944Z,63.22
2019-02-06T05:06:46.971Z,41.60
2019-02-06T05:09:16.985Z,42.95
2019-02-06T05:11:46.446Z,54.50
2019-02-06T05:14:15.533Z,38.17
2019-02-06T05:16:44.590Z,48.33
2019-02-06T05:21:55.322Z,50.53
2019-02-06T05:24:40.084Z,53.00
2019-02-06T05:27:10.226Z,32.20
2019-02-06T05:32:43.005Z,52.62
2019-02-06T05:37:52.359Z,42.87
2019-02-06T05:40:29.105Z,34.43
2019-02-06T05:42:58.169Z,37.20
2019-02-06T05:45:40.823Z,40.25
2019-02-06T05:48:24.695Z,41.60
2019-02-06T05:50:54.389Z,33.27
2019-02-06T05:58:44.199Z,41.15
2019-02-06T06:01:41.608Z,34.27
2019-02-06T06:07:44.145Z,35.67
2019-02-06T06:13:35.628Z,38.15
2019-02-06T06:16:08.071Z,31.43
2019-02-06T06:21:22.008Z,36.60
2019-02-06T06:23:52.019Z,25.80
2019-02-06T06:26:28.960Z,34.50
2019-02-06T06:28:58.012Z,35.55
2019-02-06T06:31:41.437Z,42.72
2019-02-06T06:34:13.523Z,27.07
2019-02-06T06:36:42.998Z,81.78
2019-02-06T06:41:47.795Z,44.80
2019-02-06T06:44:16.896Z,35.03
2019-02-06T06:46:45.943Z,30.87
2019-02-06T06:49:15.425Z,34.75
2019-02-06T06:51:44.527Z,29.43
2019-02-06T06:54:15.580Z,33.75
2019-02-06T06:56:45.106Z,38.17
2019-02-06T06:59:14.203Z,34.20
2019-02-06T07:01:43.287Z,34.70
2019-02-06T07:06:52.061Z,33.95
2019-02-06T07:09:23.740Z,28.43
2019-02-06T07:11:52.839Z,29.95
2019-02-06T07:14:23.827Z,31.25
2019-02-06T07:16:52.889Z,28.60
2019-02-06T07:19:22.871Z,28.87
2019-02-06T07:21:52.574Z,33.13
2019-02-06T07:24:35.366Z,27.97
2019-02-06T07:27:04.447Z,34.13
2019-02-06T07:29:33.894Z,27.48
2019-02-06T07:32:06.418Z,28.73
2019-02-06T07:34:35.479Z,27.55
2019-02-06T07:37:19.271Z,30.60
2019-02-06T07:39:51.529Z,25.80
2019-02-06T07:42:21.300Z,29.45
2019-02-06T07:44:50.375Z,32.90
2019-02-06T07:47:19.435Z,27.03
2019-02-06T07:49:48.499Z,29.83
2019-02-06T07:54:55.850Z,30.00
2019-02-06T07:57:26.738Z,25.33
2019-02-06T07:59:55.803Z,29.23
2019-02-06T08:02:24.880Z,29.70
2019-02-06T08:04:53.965Z,28.33
2019-02-06T08:10:00.279Z,35.20
2019-02-06T08:12:31.310Z,38.17
2019-02-06T08:15:00.967Z,32.93
2019-02-06T08:17:30.139Z,33.97
2019-02-06T08:19:59.235Z,37.53
2019-02-06T08:22:29.236Z,40.90
2019-02-06T08:24:58.315Z,33.30
2019-02-06T08:27:28.930Z,38.05
2019-02-06T08:29:58.041Z,41.17
2019-02-06T08:32:38.981Z,31.47
2019-02-06T08:35:08.060Z,41.60
2019-02-06T08:37:37.126Z,38.28
2019-02-06T08:40:07.775Z,34.37
2019-02-06T08:42:36.868Z,38.10
2019-02-06T08:45:15.273Z,39.17
2019-02-06T08:47:44.579Z,38.67
2019-02-06T08:50:18.229Z,38.60
2019-02-06T08:52:47.997Z,41.17
2019-02-06T08:55:31.722Z,39.30
2019-02-06T08:58:00.866Z,33.50
2019-02-06T09:00:31.682Z,33.70
2019-02-06T09:03:00.790Z,33.53
2019-02-06T09:10:49.883Z,40.60
2019-02-06T09:13:32.259Z,31.57
2019-02-06T09:16:01.372Z,30.20
2019-02-06T09:18:39.759Z,34.97
2019-02-06T09:21:08.803Z,34.60
2019-02-06T09:23:38.813Z,29.80
2019-02-06T09:26:08.542Z,28.70
2019-02-06T09:28:37.603Z,30.13
2019-02-06T09:31:06.646Z,33.83
2019-02-06T09:33:36.614Z,29.80
2019-02-06T09:36:05.690Z,31.13
2019-02-06T09:38:35.461Z,26.60
2019-02-06T09:41:08.032Z,30.20
2019-02-06T09:43:39.075Z,30.60
2019-02-06T09:48:43.834Z,29.93
2019-02-06T09:51:19.269Z,26.97
2019-02-06T09:58:58.601Z,29.67
2019-02-06T10:04:03.498Z,30.90
2019-02-06T10:09:08.477Z,29.77
2019-02-06T10:11:42.384Z,30.47
2019-02-06T10:19:23.326Z,32.97
2019-02-06T10:21:53.725Z,30.60
2019-02-06T10:24:24.512Z,31.23
2019-02-06T10:26:53.659Z,32.40
2019-02-06T10:29:22.730Z,31.70
2019-02-06T10:31:51.881Z,33.00
2019-02-06T10:34:21.959Z,31.37
2019-02-06T10:36:51.012Z,34.70
2019-02-06T10:39:21.070Z,31.97
2019-02-06T10:44:25.801Z,33.17
2019-02-06T10:49:30.575Z,33.47
2019-02-06T10:51:59.630Z,31.80
2019-02-06T10:54:28.692Z,32.80
2019-02-06T10:57:00.823Z,31.23
2019-02-06T10:59:37.676Z,35.90
2019-02-06T11:02:06.922Z,32.03
2019-02-06T11:04:35.911Z,35.60
2019-02-06T11:07:08.085Z,29.60
2019-02-06T11:12:13.123Z,33.65
2019-02-06T11:14:42.167Z,33.67
2019-02-06T11:17:11.901Z,33.43
2019-02-06T11:19:43.049Z,36.13
2019-02-06T11:22:10.166Z,35.45
2019-02-06T11:24:39.241Z,37.37
2019-02-06T11:27:08.298Z,34.73
2019-02-06T11:29:37.900Z,35.77
2019-02-06T11:32:07.127Z,34.97
2019-02-06T11:34:38.100Z,36.60
2019-02-06T11:37:07.164Z,34.70
2019-02-06T11:39:37.119Z,36.90
2019-02-06T11:42:12.162Z,39.55
2019-02-06T11:44:41.537Z,38.90
2019-02-06T11:47:10.595Z,41.03
2019-02-06T11:52:16.446Z,39.25
2019-02-06T11:57:20.721Z,37.63
2019-02-06T11:59:53.158Z,35.77
2019-02-06T12:02:37.061Z,38.63
2019-02-06T12:04:59.947Z,33.90
2019-02-06T12:07:29.027Z,35.43
2019-02-06T12:10:09.297Z,38.57
2019-02-06T12:12:30.604Z,37.65
2019-02-06T12:15:01.286Z,38.38
2019-02-06T12:17:30.432Z,38.17
2019-02-06T12:20:07.633Z,41.27
2019-02-06T12:22:36.671Z,38.78
2019-02-06T12:25:06.663Z,36.50
2019-02-06T12:27:37.288Z,36.47
2019-02-06T12:30:15.875Z,36.20
2019-02-06T12:32:52.255Z,34.90
2019-02-06T12:35:15.651Z,37.70
2019-02-06T12:37:44.839Z,37.35
2019-02-06T12:40:21.026Z,39.20
2019-02-06T12:42:50.119Z,34.53
2019-02-06T12:48:00.223Z,40.00
2019-02-06T12:50:29.335Z,41.23
2019-02-06T12:55:37.248Z,40.03
2019-02-06T12:58:08.251Z,40.03
2019-02-06T13:00:42.305Z,37.10
2019-02-06T13:03:15.332Z,40.13
2019-02-06T13:05:44.480Z,36.30
2019-02-06T13:08:22.659Z,38.00
2019-02-06T13:10:51.761Z,36.90
2019-02-06T13:13:22.523Z,39.23
2019-02-06T13:15:51.633Z,39.70
2019-02-06T13:18:20.710Z,38.67
2019-02-06T13:20:51.408Z,37.67
2019-02-06T13:25:55.387Z,43.05
2019-02-06T13:28:24.428Z,40.77
2019-02-06T13:30:53.517Z,38.87
2019-02-06T13:33:23.009Z,42.50
2019-02-06T13:35:57.865Z,41.05
2019-02-06T13:38:27.084Z,41.73
2019-02-06T13:40:56.223Z,42.13
2019-02-06T13:43:27.258Z,34.30
2019-02-06T13:45:56.950Z,42.67
2019-02-06T13:51:02.377Z,46.53
2019-02-06T13:53:32.963Z,43.70
2019-02-06T13:56:05.638Z,39.80
2019-02-06T13:58:34.690Z,41.80
2019-02-06T14:01:03.747Z,46.10
2019-02-06T14:03:32.804Z,42.43
2019-02-06T14:08:45.063Z,46.72
2019-02-06T14:11:14.119Z,50.40
2019-02-06T14:13:43.168Z,43.60
2019-02-06T14:16:12.256Z,44.97
2019-02-06T14:18:42.469Z,38.20
2019-02-06T14:21:11.541Z,41.63
2019-02-06T14:23:48.549Z,44.28
2019-02-06T14:26:16.738Z,46.57
2019-02-06T14:29:16.274Z,41.97
2019-02-06T14:31:53.777Z,44.53
2019-02-06T14:43:32.343Z,53.90
2019-02-06T14:46:17.032Z,50.73
2019-02-06T14:49:07.030Z,53.23
2019-02-06T14:54:19.801Z,56.33
2019-02-06T15:00:11.784Z,51.60
2019-02-06T15:03:17.676Z,43.67
2019-02-06T15:05:59.296Z,45.10
2019-02-06T15:08:49.627Z,40.97
2019-02-06T15:14:22.684Z,53.57
2019-02-06T15:17:24.322Z,52.07
2019-02-06T15:23:17.358Z,52.85
2019-02-06T15:34:28.688Z,53.30
2019-02-06T15:43:32.211Z,55.08
2019-02-06T15:46:32.404Z,41.47
2019-02-06T15:49:08.753Z,49.47
2019-02-06T15:58:25.216Z,56.80
2019-02-06T16:03:47.293Z,60.95
2019-02-06T16:11:55.043Z,62.13
2019-02-06T16:34:30.650Z,70.18
2019-02-06T16:42:38.280Z,79.63
2019-02-06T16:47:57.244Z,85.25
2019-02-06T16:50:38.943Z,79.75
2019-02-06T16:56:34.335Z,93.03
2019-02-06T17:02:09.141Z,102.82
2019-02-06T17:04:43.011Z,72.73
2019-02-06T17:07:28.097Z,97.37
2019-02-06T17:10:08.759Z,134.68
2019-02-06T17:12:39.502Z,117.67
2019-02-06T17:15:23.473Z,108.18
2019-02-06T17:21:51.576Z,106.18
2019-02-06T17:27:03.625Z,111.45
2019-02-06T17:29:44.091Z,118.75
2019-02-06T17:35:05.853Z,113.62
2019-02-06T17:40:58.245Z,116.22
2019-02-06T17:43:34.755Z,113.57
2019-02-06T17:48:42.441Z,150.98
2019-02-06T17:57:28.296Z,130.95
2019-02-06T18:00:09.386Z,87.97
2019-02-06T18:02:38.508Z,125.20
2019-02-06T18:05:07.579Z,126.80
2019-02-06T18:07:51.638Z,115.87
2019-02-06T18:10:27.983Z,126.45
2019-02-06T18:17:30.716Z,87.47
2019-02-06T18:20:01.558Z,114.75
2019-02-06T18:22:33.208Z,124.12
2019-02-06T18:27:45.327Z,123.47
2019-02-06T18:32:56.829Z,132.23
2019-02-06T18:35:26.942Z,101.23
2019-02-06T18:37:56.983Z,118.72
2019-02-06T18:40:30.122Z,135.43
2019-02-06T18:42:59.334Z,139.15
2019-02-06T18:45:41.763Z,150.30
2019-02-06T18:48:11.702Z,123.43
2019-02-06T18:50:42.505Z,136.50
2019-02-06T18:53:11.658Z,154.00
2019-02-06T18:55:58.925Z,131.35
2019-02-06T19:01:16.159Z,130.60
2019-02-06T19:03:46.343Z,97.87
2019-02-06T19:08:51.175Z,101.70
2019-02-06T19:11:20.256Z,102.38
2019-02-06T19:13:49.327Z,88.50
2019-02-06T19:16:20.961Z,109.72
2019-02-06T19:18:50.076Z,105.72
2019-02-06T19:21:19.133Z,63.50
2019-02-06T19:23:48.589Z,97.53
2019-02-06T19:26:17.720Z,71.57
2019-02-06T19:28:46.799Z,105.68
2019-02-06T19:33:53.035Z,88.22
2019-02-06T19:36:26.228Z,71.83
2019-02-06T19:38:55.357Z,135.10
2019-02-06T19:44:05.173Z,167.95
2019-02-06T19:49:13.556Z,148.20
2019-02-06T19:51:42.695Z,87.50
2019-02-06T19:54:12.120Z,141.30
2019-02-06T19:59:21.692Z,76.70
2019-02-06T20:01:50.872Z,82.55
2019-02-06T20:04:20.063Z,70.95
2019-02-06T20:06:56.306Z,80.43
2019-02-06T20:09:26.183Z,69.23
2019-02-06T20:11:58.119Z,82.93
2019-02-06T20:14:28.222Z,93.90
2019-02-06T20:16:58.229Z,80.60
2019-02-06T20:19:27.357Z,109.05
2019-02-06T20:21:57.954Z,98.82
2019-02-06T20:24:27.096Z,76.33
2019-02-06T20:26:56.144Z,86.12
2019-02-06T20:29:25.197Z,83.12
2019-02-06T20:34:33.328Z,119.63
2019-02-06T20:37:02.446Z,109.10
2019-02-06T20:39:33.477Z,101.65
2019-02-06T20:42:04.198Z,76.63
2019-02-06T20:44:33.291Z,97.43
2019-02-06T20:47:02.359Z,81.87
2019-02-06T20:49:31.423Z,102.87
2019-02-06T20:52:02.460Z,110.43
2019-02-06T20:54:32.632Z,100.80
2019-02-06T20:57:12.086Z,110.43
2019-02-06T20:59:32.643Z,122.27
2019-02-06T21:02:01.709Z,87.77
2019-02-06T21:04:30.804Z,99.68
2019-02-06T21:07:02.074Z,120.22
2019-02-06T21:09:32.055Z,116.77
2019-02-06T21:14:44.924Z,161.48
2019-02-06T21:17:23.684Z,146.18
2019-02-06T21:22:32.399Z,104.00
2019-02-06T21:30:26.286Z,164.68
2019-02-06T21:32:57.155Z,121.25
2019-02-06T21:38:42.976Z,152.02
2019-02-06T21:41:12.102Z,75.07
2019-02-06T21:43:48.953Z,122.22
2019-02-06T21:46:23.740Z,113.68
2019-02-06T21:51:38.076Z,96.33
2019-02-06T21:54:07.159Z,90.13
2019-02-06T21:56:43.468Z,122.68
2019-02-06T21:59:13.192Z,101.57
2019-02-06T22:01:42.383Z,87.03
2019-02-06T22:04:11.455Z,141.37
2019-02-06T22:09:29.746Z,211.20
2019-02-06T22:11:58.799Z,182.63
2019-02-06T22:14:49.053Z,167.57
2019-02-06T22:17:32.936Z,215.85
2019-02-06T22:20:02.055Z,280.55
2019-02-06T22:22:38.742Z,143.90
2019-02-06T22:25:08.803Z,167.02
2019-02-06T22:27:54.987Z,202.55
2019-02-06T22:30:43.035Z,100.10
2019-02-06T22:33:20.003Z,291.67
2019-02-06T22:38:29.416Z,259.12
2019-02-06T22:40:58.509Z,91.37
2019-02-06T22:46:08.702Z,142.27
2019-02-06T22:51:23.724Z,97.63
2019-02-06T22:53:54.777Z,131.18
2019-02-06T22:56:34.794Z,179.32
2019-02-06T22:59:03.978Z,63.73
2019-02-06T23:01:34.026Z,139.93
2019-02-06T23:04:03.115Z,124.97
2019-02-06T23:06:34.668Z,157.45
2019-02-06T23:09:05.107Z,202.87
2019-02-06T23:14:17.554Z,175.15
2019-02-06T23:16:54.214Z,69.97
2019-02-06T23:21:59.503Z,124.50
2019-02-06T23:27:08.283Z,186.32
2019-02-06T23:29:53.171Z,86.40
2019-02-06T23:32:35.241Z,188.90
2019-02-06T23:35:04.338Z,101.00
2019-02-06T23:40:27.241Z,344.17
2019-02-06T23:42:56.306Z,127.60
2019-02-06T23:48:09.199Z,354.85
2019-02-06T23:54:54.012Z,108.75
2019-02-06T23:57:24.922Z,63.50
2019-02-06T23:59:54.056Z,140.40
